VDSR

Siem Reap International Airport

Siem Reap, Cambodia
TAF VDSR 221100Z 2212/2306 13007KT 9999 SCT017 SCT040 TEMPO 2213/2217 5000 TSRA SCT015 FEW017CB SCT040
Issued Valid From Valid To
Sep-22 @ 11:00 UTC
(4 hours ago)
Sep-22 @ 12:00 UTC
(3 hours ago)
Sep-23 @ 06:00 UTC
(in 15 hours)
to
to
TAF VDSR 221100Z 2212/2306 13007KT 9999 SCT017 SCT040 TEMPO 2213/2217 5000 TSRA SCT015 FEW017CB SCT040
Issued Sep-22 @ 11:00 UTC
(4 hours ago)
Valid From Sep-22 @ 12:00 UTC
(3 hours ago)
Valid To Sep-23 @ 06:00 UTC
(in 15 hours)
-
-